createdAt,value
2023-03-11T00:00:55.745Z,3.78
2023-03-11T00:03:27.516Z,1.55
2023-03-11T00:05:55.853Z,1.70
2023-03-11T00:08:25.920Z,1.60
2023-03-11T00:10:55.186Z,1.52
2023-03-11T00:13:23.088Z,2.05
2023-03-11T00:15:51.233Z,1.85
2023-03-11T00:18:18.414Z,1.55
2023-03-11T00:20:46.792Z,1.60
2023-03-11T00:23:14.583Z,1.48
2023-03-11T00:25:43.452Z,1.42
2023-03-11T00:28:11.162Z,2.08
2023-03-11T00:30:39.041Z,1.65
2023-03-11T00:33:06.643Z,1.92
2023-03-11T00:35:34.637Z,1.80
2023-03-11T00:38:03.356Z,2.03
2023-03-11T00:40:31.325Z,1.92
2023-03-11T00:42:58.804Z,2.15
2023-03-11T00:45:27.616Z,2.38
2023-03-11T00:47:55.577Z,1.67
2023-03-11T00:50:24.712Z,2.00
2023-03-11T00:52:52.492Z,2.20
2023-03-11T00:55:22.106Z,2.33
2023-03-11T00:57:52.181Z,2.78
2023-03-11T01:00:20.628Z,2.10
2023-03-11T01:02:47.743Z,1.88
2023-03-11T01:05:15.770Z,2.10
2023-03-11T01:07:43.189Z,2.00
2023-03-11T01:10:10.646Z,1.95
2023-03-11T01:12:37.784Z,2.78
2023-03-11T01:15:06.658Z,1.70
2023-03-11T01:17:33.869Z,1.67
2023-03-11T01:20:01.138Z,2.08
2023-03-11T01:22:28.496Z,1.92
2023-03-11T01:24:56.031Z,2.00
2023-03-11T01:27:24.081Z,2.60
2023-03-11T01:29:51.232Z,1.90
2023-03-11T01:32:18.349Z,2.42
2023-03-11T01:34:46.278Z,1.75
2023-03-11T01:37:13.376Z,2.22
2023-03-11T01:39:40.458Z,1.83
2023-03-11T01:42:07.996Z,1.95
2023-03-11T01:44:35.361Z,2.03
2023-03-11T01:47:02.559Z,1.30
2023-03-11T01:49:32.989Z,1.67
2023-03-11T01:52:04.143Z,3.45
2023-03-11T01:54:33.353Z,1.88
2023-03-11T01:57:01.944Z,2.08
2023-03-11T01:59:31.476Z,1.80
2023-03-11T02:02:05.539Z,1.33
2023-03-11T02:04:34.545Z,2.00
2023-03-11T02:07:02.236Z,1.70
2023-03-11T02:09:29.577Z,1.52
2023-03-11T02:11:58.297Z,1.60
2023-03-11T02:14:26.417Z,1.80
2023-03-11T02:16:54.448Z,1.83
2023-03-11T02:19:26.136Z,1.45
2023-03-11T02:21:53.268Z,1.52
2023-03-11T02:24:23.975Z,2.03
2023-03-11T02:27:02.049Z,1.73
2023-03-11T02:29:31.020Z,1.50
2023-03-11T02:31:59.701Z,1.73
2023-03-11T02:34:28.429Z,1.65
2023-03-11T02:36:55.675Z,1.58
2023-03-11T02:39:33.627Z,1.38
2023-03-11T02:42:02.736Z,1.35
2023-03-11T02:44:30.044Z,1.48
2023-03-11T02:46:57.186Z,1.30
2023-03-11T02:49:25.036Z,1.48
2023-03-11T02:51:52.391Z,1.85
2023-03-11T02:54:19.603Z,1.38
2023-03-11T02:56:46.897Z,1.88
2023-03-11T02:59:14.023Z,1.52
2023-03-11T03:01:41.370Z,1.55
2023-03-11T03:04:08.863Z,1.60
2023-03-11T03:06:36.141Z,1.73
2023-03-11T03:09:03.634Z,1.27
2023-03-11T03:11:30.934Z,1.75
2023-03-11T03:13:58.689Z,1.40
2023-03-11T03:16:26.189Z,1.73
2023-03-11T03:18:54.440Z,1.42
2023-03-11T03:21:21.663Z,1.70
2023-03-11T03:23:49.008Z,1.30
2023-03-11T03:26:16.467Z,1.40
2023-03-11T03:28:47.124Z,1.20
2023-03-11T03:31:14.697Z,1.90
2023-03-11T03:33:43.382Z,1.40
2023-03-11T03:36:11.627Z,1.52
2023-03-11T03:38:42.834Z,1.65
2023-03-11T03:41:10.292Z,1.40
2023-03-11T03:43:40.705Z,1.80
2023-03-11T03:46:08.766Z,1.20
2023-03-11T03:48:40.952Z,1.17
2023-03-11T03:51:10.810Z,1.27
2023-03-11T03:53:42.514Z,1.40
2023-03-11T03:56:11.570Z,1.88
2023-03-11T03:58:39.413Z,2.42
2023-03-11T04:01:07.346Z,1.38
2023-03-11T04:03:35.705Z,3.03
2023-03-11T04:06:19.623Z,1.48
2023-03-11T04:08:51.785Z,1.88
2023-03-11T04:11:19.338Z,1.10
2023-03-11T04:13:46.651Z,1.38
2023-03-11T04:16:16.757Z,1.55
2023-03-11T04:18:44.031Z,1.05
2023-03-11T04:21:11.468Z,1.63
2023-03-11T04:23:38.863Z,1.48
2023-03-11T04:26:07.265Z,1.38
2023-03-11T04:28:36.310Z,1.10
2023-03-11T04:31:03.599Z,2.05
2023-03-11T04:33:32.557Z,1.05
2023-03-11T04:36:00.969Z,1.83
2023-03-11T04:38:28.503Z,1.30
2023-03-11T04:40:55.684Z,1.60
2023-03-11T04:43:22.841Z,1.58
2023-03-11T04:45:51.555Z,1.20
2023-03-11T04:48:19.480Z,2.25
2023-03-11T04:50:46.873Z,1.02
2023-03-11T04:53:15.268Z,1.25
2023-03-11T04:55:42.545Z,1.05
2023-03-11T04:58:10.130Z,1.00
2023-03-11T05:00:40.204Z,1.35
2023-03-11T05:03:10.718Z,1.30
2023-03-11T05:05:38.528Z,1.10
2023-03-11T05:08:06.523Z,1.27
2023-03-11T05:10:34.755Z,1.40
2023-03-11T05:13:05.056Z,1.20
2023-03-11T05:15:36.552Z,1.38
2023-03-11T05:18:04.837Z,1.50
2023-03-11T05:20:33.025Z,1.60
2023-03-11T05:23:00.736Z,1.10
2023-03-11T05:25:30.333Z,1.42
2023-03-11T05:27:57.896Z,1.45
2023-03-11T05:30:25.313Z,1.83
2023-03-11T05:32:52.834Z,2.50
2023-03-11T05:35:20.798Z,3.10
2023-03-11T05:37:49.756Z,2.95
2023-03-11T05:40:18.734Z,2.35
2023-03-11T05:42:47.180Z,2.10
2023-03-11T05:45:15.517Z,1.77
2023-03-11T05:47:45.307Z,1.45
2023-03-11T05:50:14.919Z,1.45
2023-03-11T05:52:44.109Z,1.73
2023-03-11T05:55:15.817Z,1.27
2023-03-11T05:57:45.450Z,1.02
2023-03-11T06:00:12.927Z,1.83
2023-03-11T06:02:47.913Z,1.42
2023-03-11T06:05:18.086Z,2.30
2023-03-11T06:07:47.453Z,1.63
2023-03-11T06:10:14.708Z,1.50
2023-03-11T06:12:42.527Z,1.15
2023-03-11T06:15:15.615Z,1.30
2023-03-11T06:17:43.853Z,1.58
2023-03-11T06:20:11.522Z,1.20
2023-03-11T06:22:40.635Z,1.40
2023-03-11T06:25:09.315Z,1.30
2023-03-11T06:27:40.129Z,1.50
2023-03-11T06:30:08.765Z,1.20
2023-03-11T06:32:44.332Z,1.45
2023-03-11T06:35:11.971Z,1.30
2023-03-11T06:37:40.990Z,1.45
2023-03-11T06:40:09.525Z,1.30
2023-03-11T06:42:37.241Z,1.25
2023-03-11T06:45:05.551Z,1.00
2023-03-11T06:47:32.961Z,1.58
2023-03-11T06:50:08.472Z,1.50
2023-03-11T06:52:37.056Z,1.30
2023-03-11T06:55:13.457Z,1.23
2023-03-11T06:58:01.501Z,0.90
2023-03-11T07:00:31.766Z,1.52
2023-03-11T07:03:01.583Z,1.33
2023-03-11T07:05:29.054Z,1.73
2023-03-11T07:08:01.325Z,1.30
2023-03-11T07:10:29.406Z,1.63
2023-03-11T07:12:56.954Z,1.73
2023-03-11T07:15:24.714Z,1.67
2023-03-11T07:17:51.969Z,1.60
2023-03-11T07:20:19.326Z,2.03
2023-03-11T07:22:46.633Z,1.55
2023-03-11T07:25:14.188Z,1.73
2023-03-11T07:27:41.486Z,1.95
2023-03-11T07:30:09.107Z,1.70
2023-03-11T07:32:36.360Z,1.40
2023-03-11T07:35:03.625Z,1.80
2023-03-11T07:37:30.782Z,1.75
2023-03-11T07:39:58.269Z,1.63
2023-03-11T07:42:25.945Z,1.67
2023-03-11T07:44:54.813Z,1.67
2023-03-11T07:47:21.967Z,1.50
2023-03-11T07:49:49.197Z,1.67
2023-03-11T07:52:16.356Z,1.95
2023-03-11T07:54:45.169Z,1.95
2023-03-11T07:57:17.019Z,1.60
2023-03-11T07:59:44.105Z,1.73
2023-03-11T08:02:11.831Z,1.92
2023-03-11T08:04:39.023Z,1.85
2023-03-11T08:07:06.197Z,1.52
2023-03-11T08:09:34.971Z,1.70
2023-03-11T08:12:02.158Z,1.70
2023-03-11T08:14:29.332Z,1.80
2023-03-11T08:16:56.513Z,1.50
2023-03-11T08:19:23.725Z,1.73
2023-03-11T08:21:50.810Z,2.28
2023-03-11T08:24:17.976Z,1.90
2023-03-11T08:26:45.131Z,1.85
2023-03-11T08:29:12.255Z,2.30
2023-03-11T08:31:39.510Z,2.22
2023-03-11T08:34:08.472Z,2.53
2023-03-11T08:36:35.952Z,2.40
2023-03-11T08:39:03.471Z,2.35
2023-03-11T08:41:30.709Z,2.10
2023-03-11T08:43:57.922Z,2.30
2023-03-11T08:46:26.851Z,1.98
2023-03-11T08:48:54.547Z,2.47
2023-03-11T08:51:22.006Z,1.70
2023-03-11T08:53:51.611Z,2.00
2023-03-11T08:56:18.971Z,1.90
2023-03-11T08:58:46.306Z,1.88
2023-03-11T09:01:14.268Z,1.70
2023-03-11T09:03:43.866Z,1.75
2023-03-11T09:06:13.595Z,1.40
2023-03-11T09:08:40.732Z,1.35
2023-03-11T09:11:08.417Z,1.77
2023-03-11T09:13:36.032Z,1.85
2023-03-11T09:16:05.849Z,2.10
2023-03-11T09:18:33.061Z,1.88
2023-03-11T09:21:01.802Z,1.48
2023-03-11T09:23:29.013Z,2.08
2023-03-11T09:25:56.113Z,1.58
2023-03-11T09:28:24.038Z,1.63
2023-03-11T09:30:51.340Z,1.20
2023-03-11T09:33:18.449Z,1.92
2023-03-11T09:35:46.089Z,1.63
2023-03-11T09:38:13.293Z,1.48
2023-03-11T09:40:57.289Z,1.65
2023-03-11T09:43:29.769Z,1.60
2023-03-11T09:46:05.267Z,1.90
2023-03-11T09:48:45.008Z,1.40
2023-03-11T09:51:25.583Z,1.75
2023-03-11T09:53:56.467Z,1.60
2023-03-11T09:56:24.277Z,1.55
2023-03-11T09:59:00.648Z,1.95
2023-03-11T10:01:29.743Z,1.27
2023-03-11T10:03:58.141Z,1.48
2023-03-11T10:06:26.431Z,1.45
2023-03-11T10:09:12.360Z,1.40
2023-03-11T10:11:48.628Z,1.80
2023-03-11T10:14:25.345Z,1.50
2023-03-11T10:17:11.413Z,1.50
2023-03-11T10:19:44.933Z,1.40
2023-03-11T10:22:20.730Z,1.67
2023-03-11T10:25:03.209Z,1.60
2023-03-11T10:27:33.063Z,1.70
2023-03-11T10:30:24.453Z,1.60
2023-03-11T10:32:55.850Z,1.23
2023-03-11T10:35:24.670Z,1.60
2023-03-11T10:37:51.763Z,1.65
2023-03-11T10:40:22.556Z,1.63
2023-03-11T10:42:52.123Z,1.77
2023-03-11T10:45:20.953Z,2.38
2023-03-11T10:47:48.126Z,1.77
2023-03-11T10:50:18.986Z,1.90
2023-03-11T10:53:06.146Z,1.80
2023-03-11T10:55:33.323Z,1.92
2023-03-11T10:58:12.822Z,2.10
2023-03-11T11:00:40.071Z,1.52
2023-03-11T11:03:13.388Z,1.70
2023-03-11T11:05:40.563Z,1.95
2023-03-11T11:08:09.791Z,1.55
2023-03-11T11:10:37.426Z,1.55
2023-03-11T11:13:13.498Z,1.83
2023-03-11T11:15:54.749Z,1.52
2023-03-11T11:18:24.412Z,1.52
2023-03-11T11:20:56.120Z,1.67
2023-03-11T11:23:34.274Z,1.43
2023-03-11T11:26:04.693Z,1.40
2023-03-11T11:28:33.442Z,1.80
2023-03-11T11:31:05.015Z,1.60
2023-03-11T11:33:40.855Z,1.50
2023-03-11T11:36:16.307Z,1.60
2023-03-11T11:38:43.834Z,1.48
2023-03-11T11:41:15.393Z,1.67
2023-03-11T11:43:48.629Z,1.55
2023-03-11T11:46:35.967Z,1.50
2023-03-11T11:49:08.889Z,1.55
2023-03-11T11:51:40.448Z,1.48
2023-03-11T11:54:15.340Z,1.50
2023-03-11T11:56:42.566Z,1.75
2023-03-11T11:59:18.718Z,1.55
2023-03-11T12:02:05.141Z,1.45
2023-03-11T12:04:45.416Z,1.25
2023-03-11T12:07:25.853Z,1.10
2023-03-11T12:10:07.278Z,1.60
2023-03-11T12:12:50.531Z,1.55
2023-03-11T12:15:23.439Z,1.40
2023-03-11T12:17:53.229Z,1.00
2023-03-11T12:20:28.712Z,1.33
2023-03-11T12:23:01.292Z,1.10
2023-03-11T12:27:58.772Z,1.40
2023-03-11T12:30:34.005Z,1.52
2023-03-11T12:33:07.195Z,1.10
2023-03-11T12:35:37.192Z,1.20
2023-03-11T12:38:27.277Z,1.30
2023-03-11T12:40:59.411Z,1.30
2023-03-11T12:43:35.440Z,1.40
2023-03-11T12:46:07.132Z,1.20
2023-03-11T12:48:53.101Z,1.07
2023-03-11T12:51:34.378Z,1.42
2023-03-11T12:54:20.438Z,1.20
2023-03-11T12:56:54.150Z,1.20
2023-03-11T12:59:39.854Z,1.13
2023-03-11T13:02:25.675Z,1.20
2023-03-11T13:05:11.713Z,1.05
2023-03-11T13:07:41.995Z,1.08
2023-03-11T13:10:14.792Z,1.08
2023-03-11T13:12:49.409Z,1.02
2023-03-11T13:15:22.086Z,1.00
2023-03-11T13:18:00.554Z,1.15
2023-03-11T13:20:41.325Z,1.15
2023-03-11T13:23:14.484Z,1.50
2023-03-11T13:25:41.696Z,0.85
2023-03-11T13:28:44.125Z,0.88
2023-03-11T13:31:29.883Z,1.20
2023-03-11T13:34:00.878Z,1.15
2023-03-11T13:36:43.552Z,1.00
2023-03-11T13:39:29.365Z,1.10
2023-03-11T13:41:56.899Z,1.17
2023-03-11T13:44:29.785Z,1.00
2023-03-11T13:47:23.193Z,1.00
2023-03-11T13:49:50.561Z,1.10
2023-03-11T13:52:26.425Z,1.10
2023-03-11T13:54:59.380Z,0.80
2023-03-11T13:57:29.295Z,0.77
2023-03-11T13:59:57.244Z,1.27
2023-03-11T14:02:25.916Z,0.68
2023-03-11T14:05:03.492Z,0.93
2023-03-11T14:07:31.832Z,0.60
2023-03-11T14:10:18.159Z,0.70
2023-03-11T14:12:47.575Z,1.08
2023-03-11T14:15:24.778Z,1.30
2023-03-11T14:17:52.798Z,0.95
2023-03-11T14:20:23.677Z,0.98
2023-03-11T14:22:51.898Z,0.70
2023-03-11T14:25:25.961Z,1.10
2023-03-11T14:27:56.158Z,0.93
2023-03-11T14:30:30.491Z,1.15
2023-03-11T14:32:59.189Z,0.80
2023-03-11T14:35:26.875Z,0.80
2023-03-11T14:37:54.212Z,1.30
2023-03-11T14:40:25.898Z,0.80
2023-03-11T14:42:55.054Z,1.00
2023-03-11T14:45:23.863Z,0.82
2023-03-11T14:48:03.446Z,0.70
2023-03-11T14:50:32.711Z,1.10
2023-03-11T14:53:10.104Z,1.00
2023-03-11T14:55:44.572Z,0.80
2023-03-11T14:58:19.350Z,0.93
2023-03-11T15:00:49.130Z,0.80
2023-03-11T15:03:19.031Z,0.90
2023-03-11T15:05:49.404Z,0.80
2023-03-11T15:08:19.479Z,0.85
2023-03-11T15:11:03.261Z,1.45
2023-03-11T15:13:30.662Z,1.10
2023-03-11T15:16:02.092Z,0.75
2023-03-11T15:18:32.074Z,1.10
2023-03-11T15:21:07.325Z,1.00
2023-03-11T15:23:35.744Z,0.80
2023-03-11T15:26:04.398Z,0.95
2023-03-11T15:28:32.884Z,0.73
2023-03-11T15:31:18.803Z,1.13
2023-03-11T15:33:46.199Z,1.10
2023-03-11T15:36:32.205Z,0.70
2023-03-11T15:39:17.612Z,0.73
2023-03-11T15:41:46.772Z,0.93
2023-03-11T15:44:37.295Z,0.85
2023-03-11T15:47:05.204Z,0.90
2023-03-11T15:49:32.500Z,1.10
2023-03-11T15:52:02.926Z,0.93
2023-03-11T15:54:30.081Z,1.10
2023-03-11T15:56:58.364Z,1.10
2023-03-11T15:59:29.320Z,1.00
2023-03-11T16:01:56.828Z,0.88
2023-03-11T16:04:24.160Z,1.08
2023-03-11T16:07:02.983Z,0.90
2023-03-11T16:09:34.533Z,0.95
2023-03-11T16:12:02.633Z,0.75
2023-03-11T16:14:29.791Z,0.70
2023-03-11T16:16:56.956Z,0.82
2023-03-11T16:19:24.106Z,0.88
2023-03-11T16:21:51.537Z,1.05
2023-03-11T16:24:20.572Z,0.95
2023-03-11T16:26:47.704Z,1.88
2023-03-11T16:29:19.427Z,1.58
2023-03-11T16:31:48.870Z,2.40
2023-03-11T16:34:16.161Z,2.40
2023-03-11T16:36:43.353Z,1.70
2023-03-11T16:39:10.677Z,1.98
2023-03-11T16:41:42.320Z,0.93
2023-03-11T16:44:10.050Z,0.90
2023-03-11T16:46:37.316Z,0.88
2023-03-11T16:49:05.137Z,0.90
2023-03-11T16:51:32.429Z,1.65
2023-03-11T16:53:59.693Z,1.33
2023-03-11T16:56:27.096Z,0.70
2023-03-11T16:58:54.257Z,1.02
2023-03-11T17:01:22.114Z,1.00
2023-03-11T17:03:51.959Z,0.90
2023-03-11T17:06:19.616Z,1.00
2023-03-11T17:08:49.056Z,1.00
2023-03-11T17:11:17.165Z,0.90
2023-03-11T17:13:44.441Z,1.00
2023-03-11T17:16:11.771Z,1.30
2023-03-11T17:18:38.926Z,0.75
2023-03-11T17:21:09.508Z,1.00
2023-03-11T17:23:36.701Z,0.80
2023-03-11T17:26:08.116Z,1.08
2023-03-11T17:28:37.706Z,1.13
2023-03-11T17:31:07.118Z,1.05
2023-03-11T17:33:34.494Z,1.20
2023-03-11T17:36:02.603Z,1.00
2023-03-11T17:38:30.083Z,1.10
2023-03-11T17:40:57.400Z,0.90
2023-03-11T17:43:24.839Z,0.90
2023-03-11T17:45:52.272Z,1.17
2023-03-11T17:48:20.973Z,0.90
2023-03-11T17:50:48.109Z,1.13
2023-03-11T17:53:15.240Z,0.82
2023-03-11T17:55:42.420Z,1.00
2023-03-11T17:58:09.866Z,1.35
2023-03-11T18:00:37.137Z,1.70
2023-03-11T18:03:04.262Z,1.10
2023-03-11T18:05:31.341Z,1.10
2023-03-11T18:07:58.721Z,1.95
2023-03-11T18:10:25.872Z,4.13
2023-03-11T18:12:53.020Z,2.58
2023-03-11T18:15:22.467Z,4.80
2023-03-11T18:17:49.781Z,2.28
2023-03-11T18:20:17.424Z,1.67
2023-03-11T18:22:46.628Z,1.60
2023-03-11T18:25:14.177Z,1.80
2023-03-11T18:27:41.267Z,1.63
2023-03-11T18:30:11.094Z,1.35
2023-03-11T18:32:38.385Z,1.20
2023-03-11T18:35:05.773Z,1.48
2023-03-11T18:37:33.686Z,1.30
2023-03-11T18:40:00.843Z,1.20
2023-03-11T18:42:28.014Z,1.13
2023-03-11T18:44:55.148Z,1.40
2023-03-11T18:47:22.294Z,2.28
2023-03-11T18:49:49.917Z,1.42
2023-03-11T18:52:17.076Z,1.70
2023-03-11T18:54:44.579Z,2.22
2023-03-11T18:57:11.706Z,2.00
2023-03-11T18:59:38.784Z,2.88
2023-03-11T19:02:05.976Z,2.00
2023-03-11T19:04:33.240Z,1.95
2023-03-11T19:07:00.383Z,1.67
2023-03-11T19:09:27.448Z,1.98
2023-03-11T19:11:54.546Z,2.45
2023-03-11T19:14:21.613Z,2.00
2023-03-11T19:16:48.883Z,2.58
2023-03-11T19:19:16.007Z,2.15
2023-03-11T19:21:43.228Z,3.08
2023-03-11T19:24:10.586Z,2.53
2023-03-11T19:26:46.612Z,4.03
2023-03-11T19:29:14.531Z,3.10
2023-03-11T19:31:43.498Z,3.22
2023-03-11T19:34:10.739Z,2.95
2023-03-11T19:36:38.953Z,2.63
2023-03-11T19:39:06.191Z,2.38
2023-03-11T19:41:33.316Z,3.15
2023-03-11T19:44:00.909Z,1.90
2023-03-11T19:46:29.389Z,1.90
2023-03-11T19:48:56.796Z,2.35
2023-03-11T19:51:26.591Z,1.83
2023-03-11T19:53:55.586Z,1.42
2023-03-11T19:56:22.779Z,1.60
2023-03-11T19:58:49.959Z,2.30
2023-03-11T20:01:18.209Z,2.03
2023-03-11T20:03:45.424Z,1.63
2023-03-11T20:06:18.342Z,1.98
2023-03-11T20:08:45.671Z,1.85
2023-03-11T20:11:12.978Z,1.77
2023-03-11T20:13:42.656Z,2.30
2023-03-11T20:16:12.049Z,1.75
2023-03-11T20:18:39.522Z,1.60
2023-03-11T20:21:07.610Z,1.90
2023-03-11T20:23:35.080Z,1.95
2023-03-11T20:26:09.637Z,2.00
2023-03-11T20:28:36.781Z,2.13
2023-03-11T20:31:09.845Z,1.83
2023-03-11T20:33:37.995Z,1.80
2023-03-11T20:36:06.521Z,2.67
2023-03-11T20:38:33.808Z,2.97
2023-03-11T20:41:01.143Z,3.35
2023-03-11T20:43:28.350Z,3.08
2023-03-11T20:45:55.542Z,3.22
2023-03-11T20:48:22.692Z,3.28
2023-03-11T20:50:50.034Z,2.40
2023-03-11T20:53:17.319Z,2.15
2023-03-11T20:55:44.540Z,2.50
2023-03-11T20:58:11.726Z,2.80
2023-03-11T21:00:38.837Z,3.33
2023-03-11T21:03:06.068Z,3.20
2023-03-11T21:05:36.779Z,2.60
2023-03-11T21:08:04.587Z,2.83
2023-03-11T21:10:31.757Z,2.53
2023-03-11T21:12:58.981Z,2.60
2023-03-11T21:15:26.368Z,2.45
2023-03-11T21:17:53.524Z,2.10
2023-03-11T21:20:20.933Z,2.58
2023-03-11T21:22:48.070Z,2.53
2023-03-11T21:25:15.290Z,2.95
2023-03-11T21:27:42.557Z,3.30
2023-03-11T21:30:10.091Z,4.07
2023-03-11T21:32:37.353Z,4.60
2023-03-11T21:35:04.901Z,4.07
2023-03-11T21:37:32.310Z,4.13
2023-03-11T21:39:59.626Z,3.80
2023-03-11T21:42:29.147Z,3.60
2023-03-11T21:44:56.594Z,3.35
2023-03-11T21:47:23.937Z,3.42
2023-03-11T21:49:51.266Z,3.25
2023-03-11T21:52:18.487Z,3.15
2023-03-11T21:54:45.747Z,2.80
2023-03-11T21:57:12.902Z,2.85
2023-03-11T21:59:40.204Z,2.90
2023-03-11T22:02:07.387Z,3.03
2023-03-11T22:04:34.588Z,2.65
2023-03-11T22:07:02.152Z,3.00
2023-03-11T22:09:29.341Z,3.22
2023-03-11T22:11:56.588Z,4.22
2023-03-11T22:14:24.352Z,3.85
2023-03-11T22:16:51.607Z,3.72
2023-03-11T22:19:18.844Z,4.32
2023-03-11T22:21:46.230Z,4.05
2023-03-11T22:24:13.358Z,3.88
2023-03-11T22:26:40.455Z,3.90
2023-03-11T22:29:08.988Z,3.47
2023-03-11T22:31:36.534Z,3.65
2023-03-11T22:34:03.642Z,2.67
2023-03-11T22:36:30.822Z,3.13
2023-03-11T22:38:57.991Z,4.03
2023-03-11T22:41:25.153Z,2.88
2023-03-11T22:43:52.291Z,3.00
2023-03-11T22:46:19.527Z,2.55
2023-03-11T22:48:46.771Z,2.70
2023-03-11T22:51:14.037Z,2.38
2023-03-11T22:53:41.272Z,3.15
2023-03-11T22:56:09.778Z,2.80
2023-03-11T22:58:37.162Z,3.20
2023-03-11T23:01:04.711Z,3.47
2023-03-11T23:03:32.695Z,2.63
2023-03-11T23:06:00.642Z,2.40
2023-03-11T23:08:27.985Z,3.25
2023-03-11T23:10:55.367Z,3.00
2023-03-11T23:13:22.504Z,2.72
2023-03-11T23:15:50.060Z,2.40
2023-03-11T23:18:17.307Z,3.20
2023-03-11T23:20:44.887Z,2.42
2023-03-11T23:23:13.001Z,2.83
2023-03-11T23:25:41.246Z,3.47
2023-03-11T23:28:08.500Z,3.40
2023-03-11T23:30:35.817Z,3.05
2023-03-11T23:33:03.215Z,3.13
2023-03-11T23:35:30.826Z,3.47
2023-03-11T23:37:58.222Z,3.63
2023-03-11T23:40:25.403Z,4.57
2023-03-11T23:42:52.590Z,4.72
2023-03-11T23:45:19.786Z,3.20
2023-03-11T23:47:46.980Z,2.65
2023-03-11T23:50:14.204Z,2.42
2023-03-11T23:52:41.285Z,2.70
2023-03-11T23:55:08.941Z,2.80
2023-03-11T23:57:36.973Z,2.70
